sensor_id;sensor_type;location;lat;lon;timestamp;temperature;humidity
20498;DHT22;10407;53.238;10.448;2023-03-11T00:00:43;2.20;99.90
20498;DHT22;10407;53.238;10.448;2023-03-11T00:03:13;2.10;99.90
20498;DHT22;10407;53.238;10.448;2023-03-11T00:05:43;2.20;99.90
20498;DHT22;10407;53.238;10.448;2023-03-11T00:08:13;2.10;99.90
20498;DHT22;10407;53.238;10.448;2023-03-11T00:10:44;2.20;99.90
20498;DHT22;10407;53.238;10.448;2023-03-11T00:13:13;2.20;99.90
20498;DHT22;10407;53.238;10.448;2023-03-11T00:15:44;2.20;99.90
20498;DHT22;10407;53.238;10.448;2023-03-11T00:18:12;1.90;99.90
20498;DHT22;10407;53.238;10.448;2023-03-11T00:20:42;2.00;99.90
20498;DHT22;10407;53.238;10.448;2023-03-11T00:23:11;2.10;99.90
20498;DHT22;10407;53.238;10.448;2023-03-11T00:25:39;2.20;99.90
20498;DHT22;10407;53.238;10.448;2023-03-11T00:28:08;2.10;99.90
20498;DHT22;10407;53.238;10.448;2023-03-11T00:30:37;2.10;99.90
20498;DHT22;10407;53.238;10.448;2023-03-11T00:33:06;2.10;99.90
20498;DHT22;10407;53.238;10.448;2023-03-11T00:35:34;2.00;99.90
20498;DHT22;10407;53.238;10.448;2023-03-11T00:38:05;2.10;99.90
20498;DHT22;10407;53.238;10.448;2023-03-11T00:40:34;2.20;99.90
20498;DHT22;10407;53.238;10.448;2023-03-11T00:43:02;2.20;99.90
20498;DHT22;10407;53.238;10.448;2023-03-11T00:45:31;2.10;99.90
20498;DHT22;10407;53.238;10.448;2023-03-11T00:47:59;2.10;99.90
20498;DHT22;10407;53.238;10.448;2023-03-11T00:50:29;2.20;99.90
20498;DHT22;10407;53.238;10.448;2023-03-11T00:52:58;2.20;99.90
20498;DHT22;10407;53.238;10.448;2023-03-11T00:55:28;1.90;99.90
20498;DHT22;10407;53.238;10.448;2023-03-11T00:57:59;2.00;99.90
20498;DHT22;10407;53.238;10.448;2023-03-11T01:00:28;2.00;99.90
20498;DHT22;10407;53.238;10.448;2023-03-11T01:02:56;2.00;99.90
20498;DHT22;10407;53.238;10.448;2023-03-11T01:05:26;2.00;99.90
20498;DHT22;10407;53.238;10.448;2023-03-11T01:07:54;2.00;99.90
20498;DHT22;10407;53.238;10.448;2023-03-11T01:10:22;2.10;99.90
20498;DHT22;10407;53.238;10.448;2023-03-11T01:12:50;2.10;99.90
20498;DHT22;10407;53.238;10.448;2023-03-11T01:15:29;2.00;99.90
20498;DHT22;10407;53.238;10.448;2023-03-11T01:17:51;2.10;99.90
20498;DHT22;10407;53.238;10.448;2023-03-11T01:20:19;2.10;99.90
20498;DHT22;10407;53.238;10.448;2023-03-11T01:22:46;2.20;99.90
20498;DHT22;10407;53.238;10.448;2023-03-11T01:25:16;2.20;99.90
20498;DHT22;10407;53.238;10.448;2023-03-11T01:27:44;2.20;99.90
20498;DHT22;10407;53.238;10.448;2023-03-11T01:30:21;2.20;99.90
20498;DHT22;10407;53.238;10.448;2023-03-11T01:32:45;2.30;99.90
20498;DHT22;10407;53.238;10.448;2023-03-11T01:35:14;2.20;99.90
20498;DHT22;10407;53.238;10.448;2023-03-11T01:37:42;2.30;99.90
20498;DHT22;10407;53.238;10.448;2023-03-11T01:40:17;2.30;99.90
20498;DHT22;10407;53.238;10.448;2023-03-11T01:42:41;2.20;99.90
20498;DHT22;10407;53.238;10.448;2023-03-11T01:47:55;2.30;99.90
20498;DHT22;10407;53.238;10.448;2023-03-11T01:50:26;2.30;99.90
20498;DHT22;10407;53.238;10.448;2023-03-11T01:52:53;2.20;99.90
20498;DHT22;10407;53.238;10.448;2023-03-11T01:55:21;2.20;99.90
20498;DHT22;10407;53.238;10.448;2023-03-11T01:57:49;2.20;99.90
20498;DHT22;10407;53.238;10.448;2023-03-11T02:00:18;2.20;99.90
20498;DHT22;10407;53.238;10.448;2023-03-11T02:02:49;2.10;99.90
20498;DHT22;10407;53.238;10.448;2023-03-11T02:05:19;2.20;99.90
20498;DHT22;10407;53.238;10.448;2023-03-11T02:07:48;2.30;99.90
20498;DHT22;10407;53.238;10.448;2023-03-11T02:10:17;2.30;99.90
20498;DHT22;10407;53.238;10.448;2023-03-11T02:12:45;2.30;99.90
20498;DHT22;10407;53.238;10.448;2023-03-11T02:15:13;2.30;99.90
20498;DHT22;10407;53.238;10.448;2023-03-11T02:17:42;2.20;99.90
20498;DHT22;10407;53.238;10.448;2023-03-11T02:20:46;2.10;99.90
20498;DHT22;10407;53.238;10.448;2023-03-11T02:23:13;2.00;99.90
20498;DHT22;10407;53.238;10.448;2023-03-11T02:25:54;2.10;99.90
20498;DHT22;10407;53.238;10.448;2023-03-11T02:28:21;2.00;99.90
20498;DHT22;10407;53.238;10.448;2023-03-11T02:30:49;2.00;99.90
20498;DHT22;10407;53.238;10.448;2023-03-11T02:33:18;2.20;99.90
20498;DHT22;10407;53.238;10.448;2023-03-11T02:35:46;2.20;99.90
20498;DHT22;10407;53.238;10.448;2023-03-11T02:38:13;2.20;99.90
20498;DHT22;10407;53.238;10.448;2023-03-11T02:40:52;2.20;99.90
20498;DHT22;10407;53.238;10.448;2023-03-11T02:43:30;2.30;99.90
20498;DHT22;10407;53.238;10.448;2023-03-11T02:45:55;2.20;99.90
20498;DHT22;10407;53.238;10.448;2023-03-11T02:48:23;2.20;99.90
20498;DHT22;10407;53.238;10.448;2023-03-11T02:50:51;2.30;99.90
20498;DHT22;10407;53.238;10.448;2023-03-11T02:53:20;2.30;99.90
20498;DHT22;10407;53.238;10.448;2023-03-11T02:55:47;2.10;99.90
20498;DHT22;10407;53.238;10.448;2023-03-11T02:58:15;2.20;99.90
20498;DHT22;10407;53.238;10.448;2023-03-11T03:00:42;2.20;99.90
20498;DHT22;10407;53.238;10.448;2023-03-11T03:03:09;2.20;99.90
20498;DHT22;10407;53.238;10.448;2023-03-11T03:05:37;2.30;99.90
20498;DHT22;10407;53.238;10.448;2023-03-11T03:08:05;2.30;99.90
20498;DHT22;10407;53.238;10.448;2023-03-11T03:10:32;2.30;99.90
20498;DHT22;10407;53.238;10.448;2023-03-11T03:13:00;2.20;99.90
20498;DHT22;10407;53.238;10.448;2023-03-11T03:15:28;2.30;99.90
20498;DHT22;10407;53.238;10.448;2023-03-11T03:17:55;2.20;99.90
20498;DHT22;10407;53.238;10.448;2023-03-11T03:20:23;2.20;99.90
20498;DHT22;10407;53.238;10.448;2023-03-11T03:22:52;2.30;99.90
20498;DHT22;10407;53.238;10.448;2023-03-11T03:25:19;2.30;99.90
20498;DHT22;10407;53.238;10.448;2023-03-11T03:27:48;2.30;99.90
20498;DHT22;10407;53.238;10.448;2023-03-11T03:30:16;2.20;99.90
20498;DHT22;10407;53.238;10.448;2023-03-11T03:32:44;2.20;99.90
20498;DHT22;10407;53.238;10.448;2023-03-11T03:35:11;2.00;99.90
20498;DHT22;10407;53.238;10.448;2023-03-11T03:37:39;2.10;99.90
20498;DHT22;10407;53.238;10.448;2023-03-11T03:40:07;2.10;99.90
20498;DHT22;10407;53.238;10.448;2023-03-11T03:42:36;2.20;99.90
20498;DHT22;10407;53.238;10.448;2023-03-11T03:45:05;2.20;99.90
20498;DHT22;10407;53.238;10.448;2023-03-11T03:47:34;2.20;99.90
20498;DHT22;10407;53.238;10.448;2023-03-11T03:50:04;2.20;99.90
20498;DHT22;10407;53.238;10.448;2023-03-11T03:52:33;2.20;99.90
20498;DHT22;10407;53.238;10.448;2023-03-11T03:55:01;2.10;99.90
20498;DHT22;10407;53.238;10.448;2023-03-11T03:57:29;2.20;99.90
20498;DHT22;10407;53.238;10.448;2023-03-11T03:59:56;2.20;99.90
20498;DHT22;10407;53.238;10.448;2023-03-11T04:02:24;2.30;99.90
20498;DHT22;10407;53.238;10.448;2023-03-11T04:04:52;2.30;99.90
20498;DHT22;10407;53.238;10.448;2023-03-11T04:07:19;2.20;99.90
20498;DHT22;10407;53.238;10.448;2023-03-11T04:09:47;2.30;99.90
20498;DHT22;10407;53.238;10.448;2023-03-11T04:12:14;2.10;99.90
20498;DHT22;10407;53.238;10.448;2023-03-11T04:14:43;2.20;99.90
20498;DHT22;10407;53.238;10.448;2023-03-11T04:17:11;2.20;99.90
20498;DHT22;10407;53.238;10.448;2023-03-11T04:19:39;2.10;99.90
20498;DHT22;10407;53.238;10.448;2023-03-11T04:22:07;2.20;99.90
20498;DHT22;10407;53.238;10.448;2023-03-11T04:24:34;2.20;99.90
20498;DHT22;10407;53.238;10.448;2023-03-11T04:27:02;2.30;99.90
20498;DHT22;10407;53.238;10.448;2023-03-11T04:29:30;2.30;99.90
20498;DHT22;10407;53.238;10.448;2023-03-11T04:31:57;2.20;99.90
20498;DHT22;10407;53.238;10.448;2023-03-11T04:34:25;2.10;99.90
20498;DHT22;10407;53.238;10.448;2023-03-11T04:36:53;2.20;99.90
20498;DHT22;10407;53.238;10.448;2023-03-11T04:39:21;2.20;99.90
20498;DHT22;10407;53.238;10.448;2023-03-11T04:41:48;2.20;99.90
20498;DHT22;10407;53.238;10.448;2023-03-11T04:44:16;2.00;99.90
20498;DHT22;10407;53.238;10.448;2023-03-11T04:46:43;2.10;99.90
20498;DHT22;10407;53.238;10.448;2023-03-11T04:49:11;2.10;99.90
20498;DHT22;10407;53.238;10.448;2023-03-11T04:51:39;2.10;99.90
20498;DHT22;10407;53.238;10.448;2023-03-11T04:54:06;2.10;99.90
20498;DHT22;10407;53.238;10.448;2023-03-11T04:56:34;2.10;99.90
20498;DHT22;10407;53.238;10.448;2023-03-11T04:59:01;2.10;99.90
20498;DHT22;10407;53.238;10.448;2023-03-11T05:01:29;2.00;99.90
20498;DHT22;10407;53.238;10.448;2023-03-11T05:03:56;2.00;99.90
20498;DHT22;10407;53.238;10.448;2023-03-11T05:06:24;1.70;99.90
20498;DHT22;10407;53.238;10.448;2023-03-11T05:08:51;2.00;99.90
20498;DHT22;10407;53.238;10.448;2023-03-11T05:11:19;2.00;99.90
20498;DHT22;10407;53.238;10.448;2023-03-11T05:13:46;2.10;99.90
20498;DHT22;10407;53.238;10.448;2023-03-11T05:16:14;2.00;99.90
20498;DHT22;10407;53.238;10.448;2023-03-11T05:18:41;2.10;99.90
20498;DHT22;10407;53.238;10.448;2023-03-11T05:21:09;2.10;99.90
20498;DHT22;10407;53.238;10.448;2023-03-11T05:23:36;2.00;99.90
20498;DHT22;10407;53.238;10.448;2023-03-11T05:26:05;2.00;99.90
20498;DHT22;10407;53.238;10.448;2023-03-11T05:28:32;2.00;99.90
20498;DHT22;10407;53.238;10.448;2023-03-11T05:31:00;2.00;99.90
20498;DHT22;10407;53.238;10.448;2023-03-11T05:33:29;2.00;99.90
20498;DHT22;10407;53.238;10.448;2023-03-11T05:36:08;2.00;99.90
20498;DHT22;10407;53.238;10.448;2023-03-11T05:38:31;1.90;99.90
20498;DHT22;10407;53.238;10.448;2023-03-11T05:40:59;2.00;99.90
20498;DHT22;10407;53.238;10.448;2023-03-11T05:43:27;2.00;99.90
20498;DHT22;10407;53.238;10.448;2023-03-11T05:45:54;2.10;99.90
20498;DHT22;10407;53.238;10.448;2023-03-11T05:48:22;2.10;99.90
20498;DHT22;10407;53.238;10.448;2023-03-11T05:50:49;2.10;99.90
20498;DHT22;10407;53.238;10.448;2023-03-11T05:53:17;2.10;99.90
20498;DHT22;10407;53.238;10.448;2023-03-11T05:55:44;2.20;99.90
20498;DHT22;10407;53.238;10.448;2023-03-11T05:58:12;2.20;99.90
20498;DHT22;10407;53.238;10.448;2023-03-11T06:00:39;2.20;99.90
20498;DHT22;10407;53.238;10.448;2023-03-11T06:03:07;2.10;99.90
20498;DHT22;10407;53.238;10.448;2023-03-11T06:05:34;2.20;99.90
20498;DHT22;10407;53.238;10.448;2023-03-11T06:08:02;2.20;99.90
20498;DHT22;10407;53.238;10.448;2023-03-11T06:10:29;2.20;99.90
20498;DHT22;10407;53.238;10.448;2023-03-11T06:12:57;2.30;99.90
20498;DHT22;10407;53.238;10.448;2023-03-11T06:15:24;2.40;99.90
20498;DHT22;10407;53.238;10.448;2023-03-11T06:17:52;2.40;99.90
20498;DHT22;10407;53.238;10.448;2023-03-11T06:20:20;2.40;99.90
20498;DHT22;10407;53.238;10.448;2023-03-11T06:22:48;2.30;99.90
20498;DHT22;10407;53.238;10.448;2023-03-11T06:25:16;2.30;99.90
20498;DHT22;10407;53.238;10.448;2023-03-11T06:27:43;2.30;99.90
20498;DHT22;10407;53.238;10.448;2023-03-11T06:30:13;2.40;99.90
20498;DHT22;10407;53.238;10.448;2023-03-11T06:32:43;2.40;99.90
20498;DHT22;10407;53.238;10.448;2023-03-11T06:35:10;2.40;99.90
20498;DHT22;10407;53.238;10.448;2023-03-11T06:37:38;2.50;99.90
20498;DHT22;10407;53.238;10.448;2023-03-11T06:40:07;2.50;99.90
20498;DHT22;10407;53.238;10.448;2023-03-11T06:42:36;2.60;99.90
20498;DHT22;10407;53.238;10.448;2023-03-11T06:45:04;2.60;99.90
20498;DHT22;10407;53.238;10.448;2023-03-11T06:47:31;2.70;99.90
20498;DHT22;10407;53.238;10.448;2023-03-11T06:49:59;2.80;99.90
20498;DHT22;10407;53.238;10.448;2023-03-11T06:52:28;2.90;99.90
20498;DHT22;10407;53.238;10.448;2023-03-11T06:54:56;2.90;99.90
20498;DHT22;10407;53.238;10.448;2023-03-11T06:57:23;3.10;99.90
20498;DHT22;10407;53.238;10.448;2023-03-11T06:59:52;3.40;99.90
20498;DHT22;10407;53.238;10.448;2023-03-11T07:02:19;3.50;99.90
20498;DHT22;10407;53.238;10.448;2023-03-11T07:04:50;3.70;99.90
20498;DHT22;10407;53.238;10.448;2023-03-11T07:07:18;3.60;99.90
20498;DHT22;10407;53.238;10.448;2023-03-11T07:09:46;3.70;99.90
20498;DHT22;10407;53.238;10.448;2023-03-11T07:12:14;4.30;99.90
20498;DHT22;10407;53.238;10.448;2023-03-11T07:14:43;5.20;99.90
20498;DHT22;10407;53.238;10.448;2023-03-11T07:17:10;5.20;99.90
20498;DHT22;10407;53.238;10.448;2023-03-11T07:19:38;5.60;99.90
20498;DHT22;10407;53.238;10.448;2023-03-11T07:22:07;5.90;99.90
20498;DHT22;10407;53.238;10.448;2023-03-11T07:24:34;6.10;99.90
20498;DHT22;10407;53.238;10.448;2023-03-11T07:27:02;6.20;99.90
20498;DHT22;10407;53.238;10.448;2023-03-11T07:29:29;6.40;99.90
20498;DHT22;10407;53.238;10.448;2023-03-11T07:31:57;6.60;99.90
20498;DHT22;10407;53.238;10.448;2023-03-11T07:34:24;6.80;99.90
20498;DHT22;10407;53.238;10.448;2023-03-11T07:36:52;7.00;99.90
20498;DHT22;10407;53.238;10.448;2023-03-11T07:39:20;7.10;99.90
20498;DHT22;10407;53.238;10.448;2023-03-11T07:41:48;7.30;99.90
20498;DHT22;10407;53.238;10.448;2023-03-11T07:44:16;7.50;99.90
20498;DHT22;10407;53.238;10.448;2023-03-11T07:46:44;7.70;99.90
20498;DHT22;10407;53.238;10.448;2023-03-11T07:49:12;7.80;99.90
20498;DHT22;10407;53.238;10.448;2023-03-11T07:51:39;7.90;99.90
20498;DHT22;10407;53.238;10.448;2023-03-11T07:54:10;7.80;99.90
20498;DHT22;10407;53.238;10.448;2023-03-11T07:56:38;8.20;99.90
20498;DHT22;10407;53.238;10.448;2023-03-11T07:59:05;8.30;99.90
20498;DHT22;10407;53.238;10.448;2023-03-11T08:01:33;8.10;99.90
20498;DHT22;10407;53.238;10.448;2023-03-11T08:04:07;8.40;99.90
20498;DHT22;10407;53.238;10.448;2023-03-11T08:06:36;7.80;99.90
20498;DHT22;10407;53.238;10.448;2023-03-11T08:09:06;7.40;99.90
20498;DHT22;10407;53.238;10.448;2023-03-11T08:11:35;7.40;99.90
20498;DHT22;10407;53.238;10.448;2023-03-11T08:14:03;7.90;99.90
20498;DHT22;10407;53.238;10.448;2023-03-11T08:16:31;7.70;99.90
20498;DHT22;10407;53.238;10.448;2023-03-11T08:18:59;7.60;99.90
20498;DHT22;10407;53.238;10.448;2023-03-11T08:21:28;7.80;99.90
20498;DHT22;10407;53.238;10.448;2023-03-11T08:23:59;7.50;99.90
20498;DHT22;10407;53.238;10.448;2023-03-11T08:26:27;7.70;99.90
20498;DHT22;10407;53.238;10.448;2023-03-11T08:28:55;7.70;99.90
20498;DHT22;10407;53.238;10.448;2023-03-11T08:31:26;7.60;99.90
20498;DHT22;10407;53.238;10.448;2023-03-11T08:33:56;7.50;99.90
20498;DHT22;10407;53.238;10.448;2023-03-11T08:36:24;7.70;99.90
20498;DHT22;10407;53.238;10.448;2023-03-11T08:38:52;8.00;99.90
20498;DHT22;10407;53.238;10.448;2023-03-11T08:41:19;7.80;99.90
20498;DHT22;10407;53.238;10.448;2023-03-11T08:43:47;8.50;99.90
20498;DHT22;10407;53.238;10.448;2023-03-11T08:46:25;8.70;99.90
20498;DHT22;10407;53.238;10.448;2023-03-11T08:48:52;8.50;99.90
20498;DHT22;10407;53.238;10.448;2023-03-11T08:51:21;8.80;99.90
20498;DHT22;10407;53.238;10.448;2023-03-11T08:53:50;9.10;99.90
20498;DHT22;10407;53.238;10.448;2023-03-11T08:56:18;9.70;99.90
20498;DHT22;10407;53.238;10.448;2023-03-11T08:58:47;9.30;99.90
20498;DHT22;10407;53.238;10.448;2023-03-11T09:01:16;9.60;99.90
20498;DHT22;10407;53.238;10.448;2023-03-11T09:03:45;9.90;99.90
20498;DHT22;10407;53.238;10.448;2023-03-11T09:06:14;9.70;99.90
20498;DHT22;10407;53.238;10.448;2023-03-11T09:08:43;10.30;99.90
20498;DHT22;10407;53.238;10.448;2023-03-11T09:11:11;9.80;99.90
20498;DHT22;10407;53.238;10.448;2023-03-11T09:13:40;10.30;99.90
20498;DHT22;10407;53.238;10.448;2023-03-11T09:16:16;10.50;99.90
20498;DHT22;10407;53.238;10.448;2023-03-11T09:18:44;10.30;99.90
20498;DHT22;10407;53.238;10.448;2023-03-11T09:21:12;10.50;99.90
20498;DHT22;10407;53.238;10.448;2023-03-11T09:23:40;10.30;99.90
20498;DHT22;10407;53.238;10.448;2023-03-11T09:26:07;10.30;99.90
20498;DHT22;10407;53.238;10.448;2023-03-11T09:28:35;10.60;99.90
20498;DHT22;10407;53.238;10.448;2023-03-11T09:31:03;10.00;99.90
20498;DHT22;10407;53.238;10.448;2023-03-11T09:33:30;10.30;99.90
20498;DHT22;10407;53.238;10.448;2023-03-11T09:35:58;10.40;99.90
20498;DHT22;10407;53.238;10.448;2023-03-11T09:38:26;10.60;99.90
20498;DHT22;10407;53.238;10.448;2023-03-11T09:41:04;9.90;99.90
20498;DHT22;10407;53.238;10.448;2023-03-11T09:49:11;11.00;99.90
20498;DHT22;10407;53.238;10.448;2023-03-11T09:51:39;11.00;99.90
20498;DHT22;10407;53.238;10.448;2023-03-11T09:54:11;10.80;98.70
20498;DHT22;10407;53.238;10.448;2023-03-11T09:56:41;10.80;98.70
20498;DHT22;10407;53.238;10.448;2023-03-11T09:59:31;10.80;99.40
20498;DHT22;10407;53.238;10.448;2023-03-11T10:01:59;10.80;98.90
20498;DHT22;10407;53.238;10.448;2023-03-11T10:07:35;10.50;98.10
20498;DHT22;10407;53.238;10.448;2023-03-11T10:10:03;10.70;97.10
20498;DHT22;10407;53.238;10.448;2023-03-11T10:13:02;10.60;95.40
20498;DHT22;10407;53.238;10.448;2023-03-11T10:15:49;10.70;96.40
20498;DHT22;10407;53.238;10.448;2023-03-11T10:18:39;10.90;95.70
20498;DHT22;10407;53.238;10.448;2023-03-11T10:21:33;10.80;96.60
20498;DHT22;10407;53.238;10.448;2023-03-11T10:25:20;10.60;95.10
20498;DHT22;10407;53.238;10.448;2023-03-11T10:26:58;10.60;95.80
20498;DHT22;10407;53.238;10.448;2023-03-11T10:29:37;10.70;96.70
20498;DHT22;10407;53.238;10.448;2023-03-11T10:32:05;10.90;95.20
20498;DHT22;10407;53.238;10.448;2023-03-11T10:37:25;11.20;96.40
20498;DHT22;10407;53.238;10.448;2023-03-11T10:39:54;11.30;95.60
20498;DHT22;10407;53.238;10.448;2023-03-11T10:42:26;10.90;93.60
20498;DHT22;10407;53.238;10.448;2023-03-11T10:44:54;10.70;94.60
20498;DHT22;10407;53.238;10.448;2023-03-11T10:47:23;10.90;96.20
20498;DHT22;10407;53.238;10.448;2023-03-11T10:49:51;11.00;96.90
20498;DHT22;10407;53.238;10.448;2023-03-11T10:52:19;11.00;95.30
20498;DHT22;10407;53.238;10.448;2023-03-11T10:54:57;11.00;94.80
20498;DHT22;10407;53.238;10.448;2023-03-11T10:57:30;10.90;94.80
20498;DHT22;10407;53.238;10.448;2023-03-11T10:59:58;11.00;94.60
20498;DHT22;10407;53.238;10.448;2023-03-11T11:02:28;10.90;93.80
20498;DHT22;10407;53.238;10.448;2023-03-11T11:05:07;10.90;94.00
20498;DHT22;10407;53.238;10.448;2023-03-11T11:07:37;10.10;95.40
20498;DHT22;10407;53.238;10.448;2023-03-11T11:10:19;10.50;96.10
20498;DHT22;10407;53.238;10.448;2023-03-11T11:15:50;10.70;95.70
20498;DHT22;10407;53.238;10.448;2023-03-11T11:18:30;10.50;94.90
20498;DHT22;10407;53.238;10.448;2023-03-11T11:21:10;10.00;99.10
20498;DHT22;10407;53.238;10.448;2023-03-11T11:23:48;10.60;98.10
20498;DHT22;10407;53.238;10.448;2023-03-11T11:26:21;10.80;96.30
20498;DHT22;10407;53.238;10.448;2023-03-11T11:31:40;10.70;96.70
20498;DHT22;10407;53.238;10.448;2023-03-11T11:34:34;10.60;95.80
20498;DHT22;10407;53.238;10.448;2023-03-11T11:37:00;10.60;95.50
20498;DHT22;10407;53.238;10.448;2023-03-11T11:39:52;10.40;97.40
20498;DHT22;10407;53.238;10.448;2023-03-11T11:42:20;10.60;95.20
20498;DHT22;10407;53.238;10.448;2023-03-11T11:44:51;10.60;97.10
20498;DHT22;10407;53.238;10.448;2023-03-11T11:47:22;10.40;96.50
20498;DHT22;10407;53.238;10.448;2023-03-11T11:49:52;10.50;97.00
20498;DHT22;10407;53.238;10.448;2023-03-11T11:52:39;10.50;94.40
20498;DHT22;10407;53.238;10.448;2023-03-11T11:55:21;10.10;96.90
20498;DHT22;10407;53.238;10.448;2023-03-11T11:57:49;10.20;97.50
20498;DHT22;10407;53.238;10.448;2023-03-11T12:05:59;10.30;96.90
20498;DHT22;10407;53.238;10.448;2023-03-11T12:09:05;10.20;97.50
20498;DHT22;10407;53.238;10.448;2023-03-11T12:11:17;9.80;99.20
20498;DHT22;10407;53.238;10.448;2023-03-11T12:19:17;9.80;99.90
20498;DHT22;10407;53.238;10.448;2023-03-11T12:24:58;9.70;99.90
20498;DHT22;10407;53.238;10.448;2023-03-11T12:27:33;9.70;99.90
20498;DHT22;10407;53.238;10.448;2023-03-11T12:30:04;9.90;99.80
20498;DHT22;10407;53.238;10.448;2023-03-11T12:32:37;9.70;99.90
20498;DHT22;10407;53.238;10.448;2023-03-11T12:35:23;9.70;99.90
20498;DHT22;10407;53.238;10.448;2023-03-11T12:40:48;9.70;99.10
20498;DHT22;10407;53.238;10.448;2023-03-11T12:46:05;9.30;99.90
20498;DHT22;10407;53.238;10.448;2023-03-11T12:48:35;9.40;99.90
20498;DHT22;10407;53.238;10.448;2023-03-11T12:51:03;9.50;99.90
20498;DHT22;10407;53.238;10.448;2023-03-11T12:53:48;9.40;99.90
20498;DHT22;10407;53.238;10.448;2023-03-11T12:56:39;9.60;99.90
20498;DHT22;10407;53.238;10.448;2023-03-11T13:05:11;9.50;99.40
20498;DHT22;10407;53.238;10.448;2023-03-11T13:08:19;9.60;99.90
20498;DHT22;10407;53.238;10.448;2023-03-11T13:10:14;9.30;99.90
20498;DHT22;10407;53.238;10.448;2023-03-11T13:12:48;9.50;99.90
20498;DHT22;10407;53.238;10.448;2023-03-11T13:15:24;9.50;99.90
20498;DHT22;10407;53.238;10.448;2023-03-11T13:18:13;9.50;99.90
20498;DHT22;10407;53.238;10.448;2023-03-11T13:20:46;9.40;99.90
20498;DHT22;10407;53.238;10.448;2023-03-11T13:23:30;9.30;99.90
20498;DHT22;10407;53.238;10.448;2023-03-11T13:26:01;9.40;99.90
20498;DHT22;10407;53.238;10.448;2023-03-11T13:31:34;9.50;99.90
20498;DHT22;10407;53.238;10.448;2023-03-11T13:34:15;9.30;99.90
20498;DHT22;10407;53.238;10.448;2023-03-11T13:42:20;9.20;99.90
20498;DHT22;10407;53.238;10.448;2023-03-11T13:44:48;9.20;99.90
20498;DHT22;10407;53.238;10.448;2023-03-11T13:47:17;9.00;99.90
20498;DHT22;10407;53.238;10.448;2023-03-11T13:50:04;8.90;99.90
20498;DHT22;10407;53.238;10.448;2023-03-11T13:52:46;8.80;99.90
20498;DHT22;10407;53.238;10.448;2023-03-11T13:55:31;8.50;99.90
20498;DHT22;10407;53.238;10.448;2023-03-11T13:57:57;9.00;99.90
20498;DHT22;10407;53.238;10.448;2023-03-11T14:00:27;9.00;99.90
20498;DHT22;10407;53.238;10.448;2023-03-11T14:03:03;8.90;99.90
20498;DHT22;10407;53.238;10.448;2023-03-11T14:05:33;8.80;99.90
20498;DHT22;10407;53.238;10.448;2023-03-11T14:08:23;8.90;99.90
20498;DHT22;10407;53.238;10.448;2023-03-11T14:11:00;8.60;99.90
20498;DHT22;10407;53.238;10.448;2023-03-11T14:13:30;8.60;99.90
20498;DHT22;10407;53.238;10.448;2023-03-11T14:16:09;8.60;99.90
20498;DHT22;10407;53.238;10.448;2023-03-11T14:18:40;8.40;99.90
20498;DHT22;10407;53.238;10.448;2023-03-11T14:21:19;8.20;99.90
20498;DHT22;10407;53.238;10.448;2023-03-11T14:23:49;8.40;99.90
20498;DHT22;10407;53.238;10.448;2023-03-11T14:26:28;8.10;99.90
20498;DHT22;10407;53.238;10.448;2023-03-11T14:29:01;7.80;99.90
20498;DHT22;10407;53.238;10.448;2023-03-11T14:31:35;7.80;99.90
20498;DHT22;10407;53.238;10.448;2023-03-11T14:36:51;7.80;99.90
20498;DHT22;10407;53.238;10.448;2023-03-11T14:39:32;7.50;99.90
20498;DHT22;10407;53.238;10.448;2023-03-11T14:42:35;7.60;99.90
20498;DHT22;10407;53.238;10.448;2023-03-11T14:45:09;8.00;99.90
20498;DHT22;10407;53.238;10.448;2023-03-11T14:47:42;8.10;99.90
20498;DHT22;10407;53.238;10.448;2023-03-11T14:50:17;8.10;99.90
20498;DHT22;10407;53.238;10.448;2023-03-11T14:52:50;8.10;99.90
20498;DHT22;10407;53.238;10.448;2023-03-11T14:55:39;8.00;99.90
20498;DHT22;10407;53.238;10.448;2023-03-11T14:57:57;8.00;99.90
20498;DHT22;10407;53.238;10.448;2023-03-11T15:00:18;7.80;99.90
20498;DHT22;10407;53.238;10.448;2023-03-11T15:03:15;7.70;99.90
20498;DHT22;10407;53.238;10.448;2023-03-11T15:05:53;7.70;99.90
20498;DHT22;10407;53.238;10.448;2023-03-11T15:08:20;7.60;99.90
20498;DHT22;10407;53.238;10.448;2023-03-11T15:11:13;7.30;99.90
20498;DHT22;10407;53.238;10.448;2023-03-11T15:13:37;7.50;99.90
20498;DHT22;10407;53.238;10.448;2023-03-11T15:16:19;7.50;99.90
20498;DHT22;10407;53.238;10.448;2023-03-11T15:18:37;7.40;99.90
20498;DHT22;10407;53.238;10.448;2023-03-11T15:21:16;7.20;99.90
20498;DHT22;10407;53.238;10.448;2023-03-11T15:23:46;7.30;99.90
20498;DHT22;10407;53.238;10.448;2023-03-11T15:26:29;7.40;99.90
20498;DHT22;10407;53.238;10.448;2023-03-11T15:29:16;7.30;99.90
20498;DHT22;10407;53.238;10.448;2023-03-11T15:31:44;7.30;99.90
20498;DHT22;10407;53.238;10.448;2023-03-11T15:34:21;7.30;99.90
20498;DHT22;10407;53.238;10.448;2023-03-11T15:42:02;6.90;99.90
20498;DHT22;10407;53.238;10.448;2023-03-11T15:44:35;6.90;99.90
20498;DHT22;10407;53.238;10.448;2023-03-11T15:47:06;6.90;99.90
20498;DHT22;10407;53.238;10.448;2023-03-11T15:49:34;6.90;99.90
20498;DHT22;10407;53.238;10.448;2023-03-11T15:52:01;7.10;99.90
20498;DHT22;10407;53.238;10.448;2023-03-11T15:54:29;7.10;99.90
20498;DHT22;10407;53.238;10.448;2023-03-11T15:56:58;7.00;99.90
20498;DHT22;10407;53.238;10.448;2023-03-11T15:59:29;6.80;99.90
20498;DHT22;10407;53.238;10.448;2023-03-11T16:01:57;6.90;99.90
20498;DHT22;10407;53.238;10.448;2023-03-11T16:04:25;6.70;99.90
20498;DHT22;10407;53.238;10.448;2023-03-11T16:06:52;6.60;99.90
20498;DHT22;10407;53.238;10.448;2023-03-11T16:09:20;6.70;99.90
20498;DHT22;10407;53.238;10.448;2023-03-11T16:11:48;6.70;99.90
20498;DHT22;10407;53.238;10.448;2023-03-11T16:14:18;6.50;99.90
20498;DHT22;10407;53.238;10.448;2023-03-11T16:16:46;6.20;99.90
20498;DHT22;10407;53.238;10.448;2023-03-11T16:19:14;6.30;99.90
20498;DHT22;10407;53.238;10.448;2023-03-11T16:21:43;6.40;99.90
20498;DHT22;10407;53.238;10.448;2023-03-11T16:24:16;5.70;99.90
20498;DHT22;10407;53.238;10.448;2023-03-11T16:26:44;6.00;99.90
20498;DHT22;10407;53.238;10.448;2023-03-11T16:29:12;6.30;99.90
20498;DHT22;10407;53.238;10.448;2023-03-11T16:31:40;6.10;99.90
20498;DHT22;10407;53.238;10.448;2023-03-11T16:34:27;6.10;99.90
20498;DHT22;10407;53.238;10.448;2023-03-11T16:36:55;6.10;99.90
20498;DHT22;10407;53.238;10.448;2023-03-11T16:39:23;6.10;99.90
20498;DHT22;10407;53.238;10.448;2023-03-11T16:41:50;6.10;99.90
20498;DHT22;10407;53.238;10.448;2023-03-11T16:44:18;6.00;99.90
20498;DHT22;10407;53.238;10.448;2023-03-11T16:46:45;6.00;99.90
20498;DHT22;10407;53.238;10.448;2023-03-11T16:49:13;5.90;99.90
20498;DHT22;10407;53.238;10.448;2023-03-11T16:51:40;5.90;99.90